createdAt,value
2023-03-08T00:01:12.312Z,83.30
2023-03-08T00:03:40.487Z,83.20
2023-03-08T00:06:10.188Z,83.50
2023-03-08T00:08:38.399Z,83.30
2023-03-08T00:11:07.054Z,83.20
2023-03-08T00:13:36.721Z,83.90
2023-03-08T00:16:06.357Z,83.70
2023-03-08T00:18:35.278Z,83.30
2023-03-08T00:21:04.745Z,83.40
2023-03-08T00:23:33.089Z,84.00
2023-03-08T00:26:01.130Z,84.40
2023-03-08T00:28:29.917Z,84.60
2023-03-08T00:31:02.077Z,84.50
2023-03-08T00:33:30.790Z,85.00
2023-03-08T00:35:59.509Z,84.30
2023-03-08T00:38:28.149Z,84.50
2023-03-08T00:40:56.253Z,85.20
2023-03-08T00:43:24.624Z,84.90
2023-03-08T00:45:53.230Z,85.50
2023-03-08T00:48:24.669Z,85.70
2023-03-08T00:50:53.318Z,86.10
2023-03-08T00:53:21.954Z,85.30
2023-03-08T00:55:50.480Z,86.00
2023-03-08T00:58:18.910Z,86.00
2023-03-08T01:00:47.400Z,85.90
2023-03-08T01:03:15.820Z,85.50
2023-03-08T01:05:46.813Z,86.80
2023-03-08T01:08:15.409Z,86.20
2023-03-08T01:10:48.478Z,87.30
2023-03-08T01:13:17.866Z,88.30
2023-03-08T01:15:46.457Z,87.50
2023-03-08T01:18:14.499Z,87.10
2023-03-08T01:20:43.291Z,86.80
2023-03-08T01:23:12.745Z,86.90
2023-03-08T01:25:41.043Z,87.00
2023-03-08T01:28:09.388Z,86.90
2023-03-08T01:30:37.709Z,89.50
2023-03-08T01:33:05.775Z,87.80
2023-03-08T01:35:33.978Z,87.60
2023-03-08T01:38:02.002Z,87.40
2023-03-08T01:40:32.004Z,87.60
2023-03-08T01:43:00.332Z,87.90
2023-03-08T01:45:47.716Z,88.20
2023-03-08T01:48:17.154Z,88.00
2023-03-08T01:50:59.892Z,89.40
2023-03-08T01:53:28.063Z,88.90
2023-03-08T01:55:57.715Z,88.60
2023-03-08T01:58:26.756Z,90.00
2023-03-08T02:00:55.874Z,90.00
2023-03-08T02:03:24.612Z,89.70
2023-03-08T02:05:52.778Z,89.90
2023-03-08T02:08:23.800Z,89.10
2023-03-08T02:10:52.851Z,89.50
2023-03-08T02:13:43.946Z,90.10
2023-03-08T02:16:14.099Z,89.80
2023-03-08T02:18:53.377Z,90.00
2023-03-08T02:21:23.410Z,90.20
2023-03-08T02:23:53.321Z,90.40
2023-03-08T02:26:21.891Z,90.30
2023-03-08T02:28:50.208Z,90.30
2023-03-08T02:31:18.372Z,91.10
2023-03-08T02:33:46.918Z,90.80
2023-03-08T02:36:15.011Z,90.70
2023-03-08T02:38:44.261Z,91.60
2023-03-08T02:41:13.652Z,90.90
2023-03-08T02:43:42.456Z,91.20
2023-03-08T02:46:12.030Z,91.80
2023-03-08T02:48:40.396Z,91.30
2023-03-08T02:51:08.997Z,91.40
2023-03-08T02:53:37.222Z,91.60
2023-03-08T02:56:05.733Z,91.90
2023-03-08T02:58:35.589Z,92.10
2023-03-08T03:01:04.462Z,92.10
2023-03-08T03:03:33.029Z,92.50
2023-03-08T03:06:01.285Z,92.40
2023-03-08T03:08:33.827Z,92.60
2023-03-08T03:11:01.971Z,92.60
2023-03-08T03:13:31.365Z,92.80
2023-03-08T03:16:06.078Z,93.10
2023-03-08T03:18:34.672Z,92.90
2023-03-08T03:21:04.389Z,93.20
2023-03-08T03:23:33.087Z,93.30
2023-03-08T03:26:05.227Z,93.40
2023-03-08T03:28:34.275Z,93.60
2023-03-08T03:31:07.568Z,94.40
2023-03-08T03:33:36.358Z,94.10
2023-03-08T03:36:05.301Z,94.50
2023-03-08T03:38:35.990Z,93.90
2023-03-08T03:41:05.018Z,93.80
2023-03-08T03:43:33.689Z,94.00
2023-03-08T03:46:03.445Z,94.00
2023-03-08T03:48:34.939Z,94.00
2023-03-08T03:51:04.442Z,94.40
2023-03-08T03:53:33.455Z,94.30
2023-03-08T03:56:03.702Z,95.10
2023-03-08T03:58:31.884Z,94.70
2023-03-08T04:01:00.342Z,94.90
2023-03-08T04:03:33.960Z,95.30
2023-03-08T04:06:07.399Z,95.00
2023-03-08T04:08:41.974Z,95.10
2023-03-08T04:11:13.934Z,95.00
2023-03-08T04:13:42.506Z,95.10
2023-03-08T04:16:11.546Z,95.40
2023-03-08T04:18:41.658Z,95.30
2023-03-08T04:21:10.589Z,95.30
2023-03-08T04:23:40.105Z,95.80
2023-03-08T04:26:09.539Z,95.70
2023-03-08T04:28:39.259Z,95.90
2023-03-08T04:31:14.943Z,95.60
2023-03-08T04:33:45.612Z,95.90
2023-03-08T04:36:15.754Z,95.80
2023-03-08T04:38:46.046Z,96.00
2023-03-08T04:41:14.649Z,96.20
2023-03-08T04:43:55.221Z,96.50
2023-03-08T04:46:31.689Z,96.80
2023-03-08T04:49:02.986Z,96.90
2023-03-08T04:51:37.177Z,96.90
2023-03-08T04:54:08.736Z,97.10
2023-03-08T04:56:41.819Z,97.30
2023-03-08T04:59:12.042Z,97.40
2023-03-08T05:01:40.227Z,97.70
2023-03-08T05:04:11.403Z,97.90
2023-03-08T05:06:41.451Z,98.10
2023-03-08T05:09:13.219Z,98.30
2023-03-08T05:11:43.581Z,98.40
2023-03-08T05:14:12.414Z,99.20
2023-03-08T05:16:40.868Z,98.80
2023-03-08T05:19:09.083Z,99.00
2023-03-08T05:21:46.482Z,99.40
2023-03-08T05:24:15.655Z,99.80
2023-03-08T05:26:45.669Z,99.90
2023-03-08T05:29:17.976Z,99.90
2023-03-08T05:31:46.938Z,99.20
2023-03-08T05:34:16.468Z,98.80
2023-03-08T05:36:49.575Z,98.80
2023-03-08T05:39:17.913Z,99.30
2023-03-08T05:41:55.964Z,98.60
2023-03-08T05:44:30.174Z,98.10
2023-03-08T05:47:01.273Z,97.20
2023-03-08T05:49:30.008Z,97.50
2023-03-08T05:52:00.785Z,97.70
2023-03-08T05:54:30.144Z,97.30
2023-03-08T05:57:03.328Z,97.20
2023-03-08T05:59:32.355Z,97.60
2023-03-08T06:02:04.397Z,97.90
2023-03-08T06:04:38.018Z,99.40
2023-03-08T06:07:07.829Z,99.90
2023-03-08T06:09:40.737Z,99.90
2023-03-08T06:12:13.624Z,99.90
2023-03-08T06:14:41.849Z,99.90
2023-03-08T06:17:10.671Z,99.90
2023-03-08T06:19:44.628Z,99.90
2023-03-08T06:22:16.541Z,99.90
2023-03-08T06:24:50.008Z,99.90
2023-03-08T06:27:24.690Z,99.90
2023-03-08T06:29:55.531Z,99.90
2023-03-08T06:32:25.020Z,99.90
2023-03-08T06:34:53.892Z,99.90
2023-03-08T06:37:23.576Z,99.90
2023-03-08T06:39:52.798Z,99.90
2023-03-08T06:42:34.508Z,99.90
2023-03-08T06:45:11.205Z,99.90
2023-03-08T06:47:40.058Z,99.90
2023-03-08T06:50:10.085Z,99.90
2023-03-08T06:52:41.652Z,99.90
2023-03-08T06:55:11.373Z,99.90
2023-03-08T06:57:39.572Z,99.90
2023-03-08T07:00:11.492Z,99.90
2023-03-08T07:02:39.610Z,99.90
2023-03-08T07:05:08.366Z,99.90
2023-03-08T07:07:36.824Z,99.90
2023-03-08T07:10:07.503Z,99.90
2023-03-08T07:12:40.081Z,99.90
2023-03-08T07:15:09.090Z,99.90
2023-03-08T07:17:37.922Z,99.90
2023-03-08T07:20:07.277Z,99.90
2023-03-08T07:22:35.878Z,99.90
2023-03-08T07:25:04.427Z,99.90
2023-03-08T07:27:34.788Z,99.90
2023-03-08T07:30:03.124Z,99.90
2023-03-08T07:32:32.733Z,99.90
2023-03-08T07:35:01.238Z,99.90
2023-03-08T07:37:48.633Z,99.90
2023-03-08T07:40:18.176Z,99.90
2023-03-08T07:42:48.053Z,99.90
2023-03-08T07:45:40.394Z,99.90
2023-03-08T07:48:08.787Z,99.90
2023-03-08T07:50:37.636Z,99.90
2023-03-08T07:53:07.794Z,99.90
2023-03-08T07:55:37.493Z,99.90
2023-03-08T07:58:07.790Z,99.90
2023-03-08T08:00:36.062Z,99.90
2023-03-08T08:03:05.004Z,99.90
2023-03-08T08:05:36.297Z,99.90
2023-03-08T08:08:05.347Z,99.90
2023-03-08T08:10:37.608Z,99.90
2023-03-08T08:13:07.184Z,99.90
2023-03-08T08:15:35.568Z,99.90
2023-03-08T08:18:04.191Z,99.90
2023-03-08T08:20:32.685Z,99.90
2023-03-08T08:23:00.753Z,99.90
2023-03-08T08:25:29.252Z,99.90
2023-03-08T08:27:57.475Z,99.90
2023-03-08T08:30:27.556Z,99.90
2023-03-08T08:32:55.635Z,99.90
2023-03-08T08:35:34.086Z,99.90
2023-03-08T08:38:10.902Z,99.90
2023-03-08T08:40:39.780Z,99.90
2023-03-08T08:43:07.868Z,99.90
2023-03-08T08:45:38.037Z,99.90
2023-03-08T08:48:06.499Z,99.90
2023-03-08T08:50:34.721Z,99.80
2023-03-08T08:53:03.756Z,99.60
2023-03-08T08:55:32.064Z,99.60
2023-03-08T08:58:02.932Z,99.80
2023-03-08T09:00:32.271Z,99.90
2023-03-08T09:03:03.892Z,98.80
2023-03-08T09:05:34.358Z,98.70
2023-03-08T09:08:03.583Z,98.20
2023-03-08T09:10:33.310Z,98.00
2023-03-08T09:13:01.992Z,98.20
2023-03-08T09:15:30.226Z,98.20
2023-03-08T09:17:58.898Z,98.40
2023-03-08T09:20:28.877Z,98.00
2023-03-08T09:22:58.016Z,97.80
2023-03-08T09:25:26.127Z,98.10
2023-03-08T09:27:54.500Z,98.20
2023-03-08T09:30:22.754Z,98.00
2023-03-08T09:32:51.615Z,97.80
2023-03-08T09:35:19.811Z,98.10
2023-03-08T09:37:49.257Z,98.70
2023-03-08T09:40:21.349Z,97.70
2023-03-08T09:42:49.606Z,97.50
2023-03-08T09:48:15.410Z,99.30
2023-03-08T09:50:45.288Z,97.20
2023-03-08T09:53:31.279Z,96.80
2023-03-08T09:56:03.726Z,97.10
2023-03-08T09:58:34.169Z,97.30
2023-03-08T10:01:05.377Z,97.20
2023-03-08T10:03:45.994Z,97.10
2023-03-08T10:06:19.691Z,96.40
2023-03-08T10:08:51.574Z,96.90
2023-03-08T10:11:25.025Z,96.70
2023-03-08T10:13:55.023Z,96.30
2023-03-08T10:16:25.242Z,96.60
2023-03-08T10:18:54.123Z,96.30
2023-03-08T10:21:25.244Z,96.40
2023-03-08T10:23:58.298Z,98.00
2023-03-08T10:26:29.073Z,97.80
2023-03-08T10:28:57.119Z,98.50
2023-03-08T10:31:26.295Z,98.90
2023-03-08T10:33:57.877Z,97.70
2023-03-08T10:36:27.210Z,99.90
2023-03-08T10:39:06.211Z,97.70
2023-03-08T10:41:44.595Z,97.40
2023-03-08T10:44:15.314Z,97.70
2023-03-08T10:46:48.258Z,99.90
2023-03-08T10:49:17.493Z,99.90
2023-03-08T10:51:53.350Z,99.90
2023-03-08T10:54:25.378Z,99.90
2023-03-08T10:56:56.748Z,99.90
2023-03-08T10:59:32.275Z,99.90
2023-03-08T11:02:02.798Z,99.90
2023-03-08T11:04:32.284Z,99.90
2023-03-08T11:07:11.109Z,99.90
2023-03-08T11:09:39.481Z,99.90
2023-03-08T11:12:22.584Z,99.90
2023-03-08T11:14:50.898Z,99.90
2023-03-08T11:17:21.336Z,99.90
2023-03-08T11:20:00.788Z,99.90
2023-03-08T11:22:36.918Z,99.90
2023-03-08T11:25:16.714Z,99.90
2023-03-08T11:27:53.949Z,99.90
2023-03-08T11:30:26.641Z,99.90
2023-03-08T11:33:03.840Z,99.90
2023-03-08T11:35:34.570Z,99.90
2023-03-08T11:38:04.723Z,99.90
2023-03-08T11:40:38.223Z,99.90
2023-03-08T11:43:16.359Z,99.90
2023-03-08T11:45:48.935Z,99.90
2023-03-08T11:48:34.548Z,99.90
2023-03-08T11:51:07.236Z,99.90
2023-03-08T11:53:44.091Z,99.90
2023-03-08T11:56:26.987Z,99.90
2023-03-08T11:59:00.982Z,99.90
2023-03-08T12:01:32.567Z,99.90
2023-03-08T12:04:04.354Z,99.90
2023-03-08T12:06:35.722Z,99.90
2023-03-08T12:09:08.337Z,99.90
2023-03-08T12:11:41.248Z,99.90
2023-03-08T12:14:16.855Z,99.90
2023-03-08T12:16:47.794Z,99.90
2023-03-08T12:19:22.536Z,99.90
2023-03-08T12:21:52.822Z,99.90
2023-03-08T12:24:26.247Z,99.90
2023-03-08T12:26:57.347Z,99.90
2023-03-08T12:29:30.920Z,99.90
2023-03-08T12:31:59.688Z,99.90
2023-03-08T12:34:29.873Z,99.90
2023-03-08T12:36:59.161Z,99.90
2023-03-08T12:39:29.329Z,99.90
2023-03-08T12:41:58.715Z,99.90
2023-03-08T12:44:30.343Z,99.90
2023-03-08T12:47:03.813Z,99.90
2023-03-08T12:49:33.831Z,99.90
2023-03-08T12:52:04.800Z,99.90
2023-03-08T12:54:33.827Z,99.90
2023-03-08T12:57:04.351Z,99.90
2023-03-08T12:59:38.591Z,99.90
2023-03-08T13:02:27.192Z,99.90
2023-03-08T13:05:19.503Z,99.90
2023-03-08T13:07:59.526Z,99.90
2023-03-08T13:10:31.802Z,99.90
2023-03-08T13:13:05.729Z,99.90
2023-03-08T13:15:35.323Z,99.90
2023-03-08T13:18:06.485Z,99.90
2023-03-08T13:20:45.626Z,99.90
2023-03-08T13:23:22.124Z,99.90
2023-03-08T13:25:59.364Z,99.90
2023-03-08T13:33:14.564Z,99.90
2023-03-08T13:35:43.368Z,99.90
2023-03-08T13:38:20.269Z,99.90
2023-03-08T13:40:52.042Z,99.90
2023-03-08T13:43:22.248Z,99.90
2023-03-08T13:45:51.059Z,99.90
2023-03-08T13:48:20.873Z,99.90
2023-03-08T13:50:52.781Z,99.90
2023-03-08T13:53:22.083Z,99.90
2023-03-08T13:55:52.844Z,99.90
2023-03-08T13:58:26.188Z,99.90
2023-03-08T14:01:02.314Z,99.90
2023-03-08T14:03:32.950Z,99.90
2023-03-08T14:06:02.463Z,99.90
2023-03-08T14:08:30.636Z,99.90
2023-03-08T14:11:00.419Z,99.90
2023-03-08T14:13:30.033Z,99.90
2023-03-08T14:15:59.593Z,99.90
2023-03-08T14:18:29.487Z,99.90
2023-03-08T14:21:07.086Z,99.90
2023-03-08T14:23:38.741Z,99.90
2023-03-08T14:26:06.932Z,99.90
2023-03-08T14:28:40.907Z,99.90
2023-03-08T14:31:25.894Z,99.90
2023-03-08T14:33:58.743Z,99.90
2023-03-08T14:36:29.502Z,99.90
2023-03-08T14:39:00.045Z,99.90
2023-03-08T14:41:32.314Z,99.90
2023-03-08T14:44:00.994Z,99.90
2023-03-08T14:46:30.094Z,99.90
2023-03-08T14:48:59.448Z,99.90
2023-03-08T14:51:31.176Z,99.90
2023-03-08T14:54:00.575Z,99.90
2023-03-08T14:56:29.277Z,99.90
2023-03-08T14:58:59.782Z,99.90
2023-03-08T15:01:29.243Z,99.90
2023-03-08T15:03:58.406Z,99.90
2023-03-08T15:06:27.668Z,99.90
2023-03-08T15:08:57.521Z,99.90
2023-03-08T15:11:25.804Z,99.90
2023-03-08T15:13:54.607Z,99.90
2023-03-08T15:16:22.804Z,99.90
2023-03-08T15:18:51.217Z,99.90
2023-03-08T15:21:22.459Z,99.90
2023-03-08T15:23:50.649Z,99.90
2023-03-08T15:26:23.485Z,99.90
2023-03-08T15:28:51.567Z,99.90
2023-03-08T15:31:20.106Z,99.90
2023-03-08T15:33:48.459Z,99.90
2023-03-08T15:36:17.897Z,99.90
2023-03-08T15:38:46.445Z,99.90
2023-03-08T15:41:14.782Z,99.90
2023-03-08T15:43:44.580Z,99.90
2023-03-08T15:46:18.136Z,99.90
2023-03-08T15:48:46.459Z,99.90
2023-03-08T15:51:18.237Z,99.90
2023-03-08T15:53:46.464Z,99.90
2023-03-08T15:56:17.856Z,99.90
2023-03-08T15:58:47.865Z,99.90
2023-03-08T16:01:16.334Z,99.90
2023-03-08T16:03:44.486Z,99.90
2023-03-08T16:06:13.652Z,99.90
2023-03-08T16:08:42.290Z,99.90
2023-03-08T16:11:10.981Z,99.90
2023-03-08T16:13:39.359Z,99.90
2023-03-08T16:16:10.214Z,99.90
2023-03-08T16:18:40.439Z,99.90
2023-03-08T16:21:09.527Z,99.90
2023-03-08T16:23:38.031Z,99.90
2023-03-08T16:26:15.249Z,99.90
2023-03-08T16:28:45.661Z,99.90
2023-03-08T16:31:15.614Z,99.90
2023-03-08T16:33:43.855Z,99.90
2023-03-08T16:36:12.261Z,99.90
2023-03-08T16:38:40.620Z,99.90
2023-03-08T16:41:13.509Z,99.90
2023-03-08T16:43:47.712Z,99.90
2023-03-08T16:46:20.941Z,99.90
2023-03-08T16:48:50.220Z,99.90
2023-03-08T16:51:23.218Z,99.90
2023-03-08T16:53:51.897Z,99.90
2023-03-08T16:56:20.098Z,99.90
2023-03-08T16:58:48.564Z,99.90
2023-03-08T17:01:18.101Z,99.90
2023-03-08T17:03:47.667Z,99.90
2023-03-08T17:06:17.549Z,99.90
2023-03-08T17:08:50.070Z,99.90
2023-03-08T17:11:19.067Z,99.90
2023-03-08T17:13:50.784Z,99.90
2023-03-08T17:16:19.378Z,99.90
2023-03-08T17:18:49.336Z,99.90
2023-03-08T17:21:18.160Z,99.90
2023-03-08T17:23:47.100Z,99.90
2023-03-08T17:26:16.509Z,99.90
2023-03-08T17:28:45.836Z,99.90
2023-03-08T17:31:15.074Z,99.90
2023-03-08T17:33:43.535Z,99.90
2023-03-08T17:36:15.078Z,99.90
2023-03-08T17:38:43.725Z,99.90
2023-03-08T17:41:12.947Z,99.90
2023-03-08T17:43:41.828Z,99.90
2023-03-08T17:46:12.228Z,99.90
2023-03-08T17:48:40.606Z,99.90
2023-03-08T17:51:09.710Z,99.90
2023-03-08T17:53:39.464Z,99.90
2023-03-08T17:56:08.075Z,99.90
2023-03-08T17:58:36.492Z,99.90
2023-03-08T18:01:08.330Z,99.90
2023-03-08T18:03:36.478Z,99.90
2023-03-08T18:06:04.716Z,99.90
2023-03-08T18:08:33.279Z,99.90
2023-03-08T18:11:08.715Z,99.90
2023-03-08T18:13:37.571Z,99.90
2023-03-08T18:16:07.044Z,99.90
2023-03-08T18:18:35.264Z,99.90
2023-03-08T18:21:13.138Z,99.90
2023-03-08T18:23:43.372Z,99.90
2023-03-08T18:26:13.941Z,99.90
2023-03-08T18:28:42.080Z,99.90
2023-03-08T18:31:10.972Z,99.90
2023-03-08T18:33:39.357Z,99.90
2023-03-08T18:36:07.702Z,99.90
2023-03-08T18:38:36.014Z,99.90
2023-03-08T18:41:13.051Z,99.90
2023-03-08T18:43:41.524Z,99.90
2023-03-08T18:46:11.994Z,99.90
2023-03-08T18:48:40.542Z,99.90
2023-03-08T18:51:08.904Z,99.90
2023-03-08T18:53:37.165Z,99.90
2023-03-08T18:56:05.801Z,99.90
2023-03-08T18:58:35.327Z,99.90
2023-03-08T19:01:03.492Z,99.90
2023-03-08T19:03:32.151Z,99.90
2023-03-08T19:06:01.993Z,99.90
2023-03-08T19:08:30.591Z,99.90
2023-03-08T19:10:58.933Z,99.90
2023-03-08T19:13:27.717Z,99.90
2023-03-08T19:15:57.153Z,99.90
2023-03-08T19:18:25.531Z,99.90
2023-03-08T19:20:53.613Z,99.90
2023-03-08T19:23:22.898Z,99.90
2023-03-08T19:26:05.057Z,99.90
2023-03-08T19:28:33.825Z,99.90
2023-03-08T19:31:04.326Z,99.90
2023-03-08T19:33:33.172Z,99.90
2023-03-08T19:36:01.360Z,99.90
2023-03-08T19:38:29.678Z,99.90
2023-03-08T19:40:59.879Z,99.90
2023-03-08T19:43:30.948Z,99.90
2023-03-08T19:46:02.363Z,99.90
2023-03-08T19:48:32.874Z,99.90
2023-03-08T19:51:02.479Z,99.90
2023-03-08T19:53:30.624Z,99.90
2023-03-08T19:56:01.435Z,99.90
2023-03-08T19:58:49.285Z,99.90
2023-03-08T20:01:18.220Z,99.90
2023-03-08T20:03:48.570Z,99.90
2023-03-08T20:06:21.938Z,99.90
2023-03-08T20:08:52.593Z,99.90
2023-03-08T20:11:21.135Z,99.90
2023-03-08T20:13:49.995Z,99.90
2023-03-08T20:16:18.420Z,99.90
2023-03-08T20:18:49.398Z,99.90
2023-03-08T20:21:17.899Z,99.90
2023-03-08T20:23:46.130Z,99.90
2023-03-08T20:26:14.686Z,99.90
2023-03-08T20:28:43.330Z,99.90
2023-03-08T20:31:12.095Z,99.90
2023-03-08T20:33:40.966Z,99.90
2023-03-08T20:36:10.800Z,99.90
2023-03-08T20:38:40.834Z,99.90
2023-03-08T20:41:11.954Z,99.90
2023-03-08T20:43:40.795Z,99.90
2023-03-08T20:46:10.265Z,99.90
2023-03-08T20:48:46.062Z,99.90
2023-03-08T20:51:16.761Z,99.90
2023-03-08T20:53:45.272Z,99.90
2023-03-08T20:56:14.455Z,99.90
2023-03-08T20:58:45.177Z,99.90
2023-03-08T21:01:13.587Z,99.90
2023-03-08T21:03:43.317Z,99.90
2023-03-08T21:06:12.593Z,99.90
2023-03-08T21:08:43.379Z,99.90
2023-03-08T21:11:11.861Z,99.90
2023-03-08T21:13:40.159Z,99.90
2023-03-08T21:16:09.599Z,99.90
2023-03-08T21:18:37.756Z,99.90
2023-03-08T21:21:06.436Z,99.90
2023-03-08T21:23:34.501Z,99.90
2023-03-08T21:26:04.436Z,99.90
2023-03-08T21:28:32.556Z,99.90
2023-03-08T21:31:00.768Z,99.90
2023-03-08T21:33:28.898Z,99.90
2023-03-08T21:35:57.802Z,99.90
2023-03-08T21:38:25.895Z,99.90
2023-03-08T21:40:54.074Z,99.90
2023-03-08T21:43:24.033Z,99.90
2023-03-08T21:45:52.353Z,99.90
2023-03-08T21:48:20.482Z,99.90
2023-03-08T21:50:49.074Z,99.90
2023-03-08T21:53:17.197Z,99.90
2023-03-08T21:55:45.936Z,99.90
2023-03-08T21:58:13.952Z,99.90
2023-03-08T22:00:46.677Z,99.90
2023-03-08T22:03:14.827Z,99.90
2023-03-08T22:05:43.218Z,99.90
2023-03-08T22:08:11.698Z,99.90
2023-03-08T22:10:40.699Z,99.90
2023-03-08T22:13:09.334Z,99.90
2023-03-08T22:15:37.377Z,99.90
2023-03-08T22:18:07.783Z,99.90
2023-03-08T22:20:35.838Z,99.90
2023-03-08T22:23:04.227Z,99.90
2023-03-08T22:25:32.412Z,99.90
2023-03-08T22:28:02.015Z,99.90
2023-03-08T22:30:30.379Z,99.90
2023-03-08T22:32:58.651Z,99.90
2023-03-08T22:35:28.259Z,99.90
2023-03-08T22:37:57.044Z,99.90
2023-03-08T22:40:25.200Z,99.90
2023-03-08T22:42:53.311Z,99.90
2023-03-08T22:45:21.970Z,99.90
2023-03-08T22:47:51.944Z,99.90
2023-03-08T22:50:20.084Z,99.90
2023-03-08T22:52:49.549Z,99.90
2023-03-08T22:55:18.318Z,99.90
2023-03-08T22:57:46.423Z,99.90
2023-03-08T23:03:31.251Z,99.90
2023-03-08T23:05:59.946Z,99.90
2023-03-08T23:08:29.473Z,99.90
2023-03-08T23:10:58.220Z,99.90
2023-03-08T23:13:33.735Z,99.90
2023-03-08T23:16:02.897Z,99.90
2023-03-08T23:18:30.903Z,99.90
2023-03-08T23:21:03.377Z,99.90
2023-03-08T23:23:33.008Z,99.90
2023-03-08T23:26:01.671Z,99.90
2023-03-08T23:28:29.753Z,99.90
2023-03-08T23:30:57.932Z,99.90
2023-03-08T23:33:27.210Z,99.90
2023-03-08T23:35:55.505Z,99.90
2023-03-08T23:38:24.128Z,99.90
2023-03-08T23:40:53.635Z,99.90
2023-03-08T23:43:22.124Z,99.90
2023-03-08T23:45:50.432Z,99.90
2023-03-08T23:48:19.232Z,99.90
2023-03-08T23:50:48.511Z,99.90
2023-03-08T23:53:17.477Z,99.90
2023-03-08T23:55:45.540Z,99.90
2023-03-08T23:58:15.213Z,99.90
